createdAt,value
2023-02-03T06:49:57.443Z,2.10
2023-02-03T06:52:59.435Z,2.42
2023-02-03T06:56:02.242Z,3.65
2023-02-03T06:59:04.817Z,2.42
2023-02-03T07:02:07.428Z,3.25
2023-02-03T07:05:09.932Z,3.20
2023-02-03T07:08:11.917Z,2.10
2023-02-03T07:11:14.086Z,2.40
2023-02-03T07:14:16.916Z,2.22
2023-02-03T07:17:19.578Z,2.15
2023-02-03T07:20:23.682Z,1.85
2023-02-03T07:23:27.540Z,1.70
2023-02-03T07:26:30.271Z,1.92
2023-02-03T07:29:32.314Z,1.70
2023-02-03T07:32:34.086Z,2.10
2023-02-03T07:35:39.891Z,2.00
2023-02-03T07:38:41.608Z,1.98
2023-02-03T07:41:43.452Z,1.88
2023-02-03T07:44:45.558Z,2.15
2023-02-03T07:47:47.587Z,1.75
2023-02-03T07:50:50.984Z,1.90
2023-02-03T07:53:52.924Z,1.58
2023-02-03T07:56:54.958Z,1.70
2023-02-03T07:59:56.875Z,1.50
2023-02-03T08:02:58.907Z,1.35
2023-02-03T08:06:00.716Z,1.67
2023-02-03T08:09:02.779Z,1.80
2023-02-03T08:12:05.190Z,2.35
2023-02-03T08:15:07.627Z,1.90
2023-02-03T08:18:09.831Z,2.33
2023-02-03T08:21:11.780Z,1.42
2023-02-03T08:24:14.366Z,2.38
2023-02-03T08:27:20.030Z,2.22
2023-02-03T08:30:22.784Z,1.83
2023-02-03T08:33:24.626Z,2.67
2023-02-03T08:36:26.434Z,1.88
2023-02-03T08:39:28.347Z,2.85
2023-02-03T08:42:30.758Z,3.40
2023-02-03T08:45:32.592Z,1.92
2023-02-03T08:48:34.516Z,2.50
2023-02-03T08:51:37.260Z,2.97
2023-02-03T08:54:40.573Z,1.92
2023-02-03T08:57:42.626Z,1.77
2023-02-03T09:00:44.860Z,1.80
2023-02-03T09:03:46.693Z,2.30
2023-02-03T09:06:49.716Z,1.77
2023-02-03T09:09:52.175Z,1.67
2023-02-03T09:12:55.356Z,1.90
2023-02-03T09:16:01.234Z,1.85
2023-02-03T09:19:03.707Z,2.10
2023-02-03T09:22:06.744Z,1.65
2023-02-03T09:25:09.340Z,1.55
2023-02-03T09:28:11.638Z,1.60
2023-02-03T09:31:15.926Z,2.15
2023-02-03T09:34:18.138Z,1.40
2023-02-03T09:37:23.110Z,1.80
2023-02-03T09:43:50.804Z,1.73
2023-02-03T09:47:13.344Z,1.60
2023-02-03T09:50:26.842Z,1.73
2023-02-03T09:53:41.415Z,1.30
2023-02-03T09:56:52.724Z,1.25
2023-02-03T09:59:58.892Z,1.10
2023-02-03T10:03:27.270Z,1.88
2023-02-03T10:06:38.289Z,1.10
2023-02-03T10:10:11.892Z,1.00
2023-02-03T10:13:29.902Z,1.42
2023-02-03T10:16:59.448Z,1.25
2023-02-03T10:20:22.191Z,1.60
2023-02-03T10:23:30.466Z,2.38
2023-02-03T10:26:32.595Z,3.00
2023-02-03T10:29:39.827Z,1.30
2023-02-03T10:32:50.281Z,1.40
2023-02-03T10:35:58.110Z,1.33
2023-02-03T10:39:19.438Z,1.30
2023-02-03T10:42:26.314Z,1.42
2023-02-03T10:45:30.363Z,1.17
2023-02-03T10:48:34.674Z,1.05
2023-02-03T10:51:44.931Z,1.33
2023-02-03T10:54:47.173Z,1.52
2023-02-03T10:57:50.621Z,1.20
2023-02-03T11:01:18.471Z,0.70
2023-02-03T11:04:29.107Z,1.00
2023-02-03T11:07:31.984Z,1.35
2023-02-03T11:10:38.091Z,1.05
2023-02-03T11:13:40.266Z,1.38
2023-02-03T11:16:44.583Z,1.02
2023-02-03T11:19:48.087Z,0.98
2023-02-03T11:22:49.953Z,1.30
2023-02-03T11:25:52.214Z,1.23
2023-02-03T11:28:57.271Z,1.02
2023-02-03T11:32:03.324Z,0.75
2023-02-03T11:35:26.569Z,0.82
2023-02-03T11:38:36.847Z,1.13
2023-02-03T11:41:41.498Z,1.02
2023-02-03T11:44:43.372Z,1.33
2023-02-03T11:47:54.131Z,1.35
2023-02-03T11:51:04.006Z,1.15
2023-02-03T11:54:34.878Z,1.00
2023-02-03T11:58:00.178Z,1.70
2023-02-03T12:01:21.445Z,1.63
2023-02-03T12:04:50.291Z,0.88
2023-02-03T12:08:27.868Z,1.30
2023-02-03T12:11:52.595Z,1.30
2023-02-03T12:15:34.128Z,1.30
2023-02-03T12:19:01.308Z,1.10
2023-02-03T12:22:26.817Z,1.00
2023-02-03T12:26:00.361Z,0.98
2023-02-03T12:29:07.637Z,1.20
2023-02-03T12:32:24.561Z,1.08
2023-02-03T12:35:32.492Z,1.30
2023-02-03T12:38:43.494Z,1.50
2023-02-03T12:41:55.058Z,2.60
2023-02-03T12:45:06.282Z,1.35
2023-02-03T12:48:16.434Z,1.17
2023-02-03T12:51:33.820Z,0.98
2023-02-03T12:54:54.881Z,0.73
2023-02-03T12:58:01.996Z,0.82
2023-02-03T13:01:28.358Z,1.13
2023-02-03T13:04:56.029Z,1.20
2023-02-03T13:08:09.703Z,1.63
2023-02-03T13:11:20.516Z,1.50
2023-02-03T13:14:43.650Z,1.00
2023-02-03T13:18:16.656Z,0.80
2023-02-03T13:21:18.538Z,1.30
2023-02-03T13:24:25.437Z,1.17
2023-02-03T13:27:59.481Z,1.20
2023-02-03T13:31:21.303Z,1.30
2023-02-03T13:34:50.370Z,1.15
2023-02-03T13:38:23.158Z,1.30
2023-02-03T13:41:50.648Z,1.80
2023-02-03T13:44:57.387Z,1.33
2023-02-03T13:48:10.981Z,1.40
2023-02-03T13:51:18.341Z,1.50
2023-02-03T13:54:28.671Z,1.48
2023-02-03T13:57:36.536Z,1.40
2023-02-03T14:00:45.492Z,1.17
2023-02-03T14:03:47.585Z,1.52
2023-02-03T14:06:49.355Z,1.40
2023-02-03T14:10:12.024Z,2.40
2023-02-03T14:13:21.335Z,1.75
2023-02-03T14:16:24.936Z,1.90
2023-02-03T14:19:49.791Z,1.10
2023-02-03T14:23:10.422Z,1.30
2023-02-03T14:26:22.228Z,1.20
2023-02-03T14:29:29.765Z,1.30
2023-02-03T14:32:51.516Z,1.10
2023-02-03T14:35:53.730Z,1.25
2023-02-03T14:38:58.286Z,1.30
2023-02-03T14:42:13.713Z,1.10
2023-02-03T14:45:50.411Z,1.30
2023-02-03T14:49:32.007Z,1.05
2023-02-03T14:53:00.518Z,1.17
2023-02-03T14:56:20.887Z,1.00
2023-02-03T14:59:25.613Z,0.90
2023-02-03T15:02:31.066Z,1.10
2023-02-03T15:05:32.894Z,0.70
2023-02-03T15:08:41.953Z,1.05
2023-02-03T15:11:45.214Z,1.02
2023-02-03T15:14:46.926Z,0.75
2023-02-03T15:17:50.043Z,0.93
2023-02-03T15:20:54.650Z,0.88
2023-02-03T15:23:56.439Z,0.93
2023-02-03T15:26:58.260Z,0.82
2023-02-03T15:30:15.680Z,1.00
2023-02-03T15:33:21.340Z,0.70
2023-02-03T15:36:28.233Z,0.77
2023-02-03T15:39:54.620Z,0.90
2023-02-03T15:43:02.297Z,0.90
2023-02-03T15:46:13.153Z,0.70
2023-02-03T15:49:25.643Z,1.00
2023-02-03T15:52:29.028Z,0.90
2023-02-03T15:55:39.360Z,0.80
2023-02-03T15:58:46.586Z,0.82
2023-02-03T16:01:48.477Z,1.00
2023-02-03T16:04:50.535Z,0.80
2023-02-03T16:07:53.000Z,1.23
2023-02-03T16:10:54.766Z,0.93
2023-02-03T16:13:59.754Z,1.35
2023-02-03T16:17:06.290Z,1.10
2023-02-03T16:20:11.382Z,0.93
2023-02-03T16:23:23.260Z,1.05
2023-02-03T16:26:28.239Z,1.15
2023-02-03T16:29:50.014Z,1.38
2023-02-03T16:33:33.764Z,1.60
2023-02-03T16:37:01.134Z,1.30
2023-02-03T16:40:22.962Z,1.50
2023-02-03T16:43:44.564Z,1.67
2023-02-03T16:47:07.625Z,1.38
2023-02-03T16:50:38.768Z,1.50
2023-02-03T16:53:41.787Z,1.88
2023-02-03T16:56:43.954Z,1.65
2023-02-03T16:59:45.587Z,2.58
